sensor_id;sensor_type;location;lat;lon;timestamp;P1;durP1;ratioP1;P2;durP2;ratioP2
22502;SDS011;11418;48.118;9.992;2022-10-16T00:00:44;6.30;;;4.50;;
22502;SDS011;11418;48.118;9.992;2022-10-16T00:04:45;7.78;;;4.40;;
22502;SDS011;11418;48.118;9.992;2022-10-16T00:08:45;7.38;;;4.18;;
22502;SDS011;11418;48.118;9.992;2022-10-16T00:12:47;11.23;;;4.13;;
22502;SDS011;11418;48.118;9.992;2022-10-16T00:16:48;5.03;;;4.50;;
22502;SDS011;11418;48.118;9.992;2022-10-16T00:20:48;9.10;;;4.95;;
22502;SDS011;11418;48.118;9.992;2022-10-16T00:24:49;8.88;;;5.03;;
22502;SDS011;11418;48.118;9.992;2022-10-16T00:28:50;8.98;;;5.43;;
22502;SDS011;11418;48.118;9.992;2022-10-16T00:32:51;8.45;;;5.10;;
22502;SDS011;11418;48.118;9.992;2022-10-16T00:36:52;9.38;;;5.25;;
22502;SDS011;11418;48.118;9.992;2022-10-16T00:40:52;8.55;;;4.40;;
22502;SDS011;11418;48.118;9.992;2022-10-16T00:44:54;7.80;;;4.93;;
22502;SDS011;11418;48.118;9.992;2022-10-16T00:53:17;9.23;;;5.40;;
22502;SDS011;11418;48.118;9.992;2022-10-16T00:57:18;6.00;;;4.75;;
22502;SDS011;11418;48.118;9.992;2022-10-16T01:01:19;8.57;;;4.60;;
22502;SDS011;11418;48.118;9.992;2022-10-16T01:05:21;11.40;;;4.40;;
22502;SDS011;11418;48.118;9.992;2022-10-16T01:09:24;8.07;;;4.40;;
22502;SDS011;11418;48.118;9.992;2022-10-16T01:13:38;6.38;;;4.55;;
22502;SDS011;11418;48.118;9.992;2022-10-16T01:21:53;8.65;;;4.45;;
22502;SDS011;11418;48.118;9.992;2022-10-16T01:30:41;7.55;;;4.40;;
22502;SDS011;11418;48.118;9.992;2022-10-16T01:34:55;7.93;;;4.88;;
22502;SDS011;11418;48.118;9.992;2022-10-16T01:39:02;8.25;;;4.82;;
22502;SDS011;11418;48.118;9.992;2022-10-16T01:43:07;7.85;;;4.75;;
22502;SDS011;11418;48.118;9.992;2022-10-16T01:47:12;4.95;;;4.07;;
22502;SDS011;11418;48.118;9.992;2022-10-16T01:51:14;9.75;;;4.80;;
22502;SDS011;11418;48.118;9.992;2022-10-16T01:55:18;6.65;;;5.07;;
22502;SDS011;11418;48.118;9.992;2022-10-16T01:59:26;6.03;;;4.75;;
22502;SDS011;11418;48.118;9.992;2022-10-16T02:03:30;8.85;;;4.63;;
22502;SDS011;11418;48.118;9.992;2022-10-16T02:07:33;7.78;;;4.28;;
22502;SDS011;11418;48.118;9.992;2022-10-16T02:11:33;7.20;;;4.30;;
22502;SDS011;11418;48.118;9.992;2022-10-16T02:15:34;7.97;;;4.70;;
22502;SDS011;11418;48.118;9.992;2022-10-16T02:19:35;4.00;;;3.50;;
22502;SDS011;11418;48.118;9.992;2022-10-16T02:28:17;5.50;;;4.15;;
22502;SDS011;11418;48.118;9.992;2022-10-16T02:32:23;9.23;;;3.80;;
22502;SDS011;11418;48.118;9.992;2022-10-16T02:36:27;8.90;;;3.95;;
22502;SDS011;11418;48.118;9.992;2022-10-16T02:40:27;6.13;;;3.50;;
22502;SDS011;11418;48.118;9.992;2022-10-16T02:44:28;8.95;;;3.47;;
22502;SDS011;11418;48.118;9.992;2022-10-16T02:48:29;5.35;;;3.97;;
22502;SDS011;11418;48.118;9.992;2022-10-16T02:52:30;6.55;;;3.20;;
22502;SDS011;11418;48.118;9.992;2022-10-16T02:56:30;6.18;;;3.47;;
22502;SDS011;11418;48.118;9.992;2022-10-16T03:00:31;11.35;;;3.22;;
22502;SDS011;11418;48.118;9.992;2022-10-16T03:04:31;4.93;;;2.58;;
22502;SDS011;11418;48.118;9.992;2022-10-16T03:08:32;5.80;;;2.60;;
22502;SDS011;11418;48.118;9.992;2022-10-16T03:12:33;6.95;;;3.45;;
22502;SDS011;11418;48.118;9.992;2022-10-16T03:16:33;6.63;;;3.15;;
22502;SDS011;11418;48.118;9.992;2022-10-16T03:20:34;5.07;;;3.20;;
22502;SDS011;11418;48.118;9.992;2022-10-16T03:24:34;7.88;;;2.88;;
22502;SDS011;11418;48.118;9.992;2022-10-16T03:28:35;6.82;;;3.08;;
22502;SDS011;11418;48.118;9.992;2022-10-16T03:32:35;10.95;;;3.20;;
22502;SDS011;11418;48.118;9.992;2022-10-16T03:36:36;4.53;;;3.10;;
22502;SDS011;11418;48.118;9.992;2022-10-16T03:40:36;5.10;;;3.08;;
22502;SDS011;11418;48.118;9.992;2022-10-16T03:44:37;4.93;;;2.85;;
22502;SDS011;11418;48.118;9.992;2022-10-16T03:48:37;5.05;;;2.92;;
22502;SDS011;11418;48.118;9.992;2022-10-16T03:52:39;6.68;;;3.45;;
22502;SDS011;11418;48.118;9.992;2022-10-16T03:56:40;5.13;;;2.97;;
22502;SDS011;11418;48.118;9.992;2022-10-16T04:00:44;10.98;;;2.80;;
22502;SDS011;11418;48.118;9.992;2022-10-16T04:04:46;4.35;;;2.70;;
22502;SDS011;11418;48.118;9.992;2022-10-16T04:08:47;5.38;;;2.92;;
22502;SDS011;11418;48.118;9.992;2022-10-16T04:12:48;7.88;;;3.33;;
22502;SDS011;11418;48.118;9.992;2022-10-16T04:16:48;9.23;;;4.13;;
22502;SDS011;11418;48.118;9.992;2022-10-16T04:20:49;9.65;;;4.40;;
22502;SDS011;11418;48.118;9.992;2022-10-16T04:24:49;8.80;;;4.07;;
22502;SDS011;11418;48.118;9.992;2022-10-16T04:28:50;7.88;;;4.20;;
22502;SDS011;11418;48.118;9.992;2022-10-16T04:32:50;9.43;;;5.05;;
22502;SDS011;11418;48.118;9.992;2022-10-16T04:36:52;7.80;;;4.60;;
22502;SDS011;11418;48.118;9.992;2022-10-16T04:40:52;7.55;;;4.00;;
22502;SDS011;11418;48.118;9.992;2022-10-16T04:44:53;9.10;;;3.33;;
22502;SDS011;11418;48.118;9.992;2022-10-16T04:48:54;6.10;;;2.97;;
22502;SDS011;11418;48.118;9.992;2022-10-16T04:52:54;4.45;;;3.50;;
22502;SDS011;11418;48.118;9.992;2022-10-16T04:56:55;4.30;;;3.45;;
22502;SDS011;11418;48.118;9.992;2022-10-16T05:00:55;12.38;;;4.05;;
22502;SDS011;11418;48.118;9.992;2022-10-16T05:19:05;9.98;;;4.28;;
22502;SDS011;11418;48.118;9.992;2022-10-16T05:23:05;5.15;;;3.50;;
22502;SDS011;11418;48.118;9.992;2022-10-16T05:27:06;8.75;;;3.88;;
22502;SDS011;11418;48.118;9.992;2022-10-16T05:31:07;8.18;;;4.18;;
22502;SDS011;11418;48.118;9.992;2022-10-16T05:35:09;10.52;;;5.03;;
22502;SDS011;11418;48.118;9.992;2022-10-16T05:39:09;6.70;;;4.72;;
22502;SDS011;11418;48.118;9.992;2022-10-16T05:43:10;9.27;;;4.32;;
22502;SDS011;11418;48.118;9.992;2022-10-16T05:47:12;9.10;;;4.13;;
22502;SDS011;11418;48.118;9.992;2022-10-16T05:51:14;10.32;;;3.55;;
22502;SDS011;11418;48.118;9.992;2022-10-16T05:55:15;5.90;;;3.70;;
22502;SDS011;11418;48.118;9.992;2022-10-16T05:59:15;9.02;;;4.28;;
22502;SDS011;11418;48.118;9.992;2022-10-16T06:03:16;5.93;;;4.00;;
22502;SDS011;11418;48.118;9.992;2022-10-16T06:07:16;9.43;;;4.10;;
22502;SDS011;11418;48.118;9.992;2022-10-16T06:11:18;6.60;;;3.42;;
22502;SDS011;11418;48.118;9.992;2022-10-16T06:15:20;7.65;;;4.65;;
22502;SDS011;11418;48.118;9.992;2022-10-16T06:19:20;7.63;;;5.55;;
22502;SDS011;11418;48.118;9.992;2022-10-16T06:23:21;12.77;;;6.53;;
22502;SDS011;11418;48.118;9.992;2022-10-16T06:27:22;11.32;;;6.65;;
22502;SDS011;11418;48.118;9.992;2022-10-16T06:31:23;6.32;;;3.92;;
22502;SDS011;11418;48.118;9.992;2022-10-16T06:35:27;5.35;;;3.67;;
22502;SDS011;11418;48.118;9.992;2022-10-16T06:39:29;8.15;;;3.92;;
22502;SDS011;11418;48.118;9.992;2022-10-16T06:43:30;8.23;;;4.25;;
22502;SDS011;11418;48.118;9.992;2022-10-16T06:47:35;11.48;;;3.25;;
22502;SDS011;11418;48.118;9.992;2022-10-16T06:51:35;7.05;;;3.70;;
22502;SDS011;11418;48.118;9.992;2022-10-16T06:55:40;4.55;;;3.28;;
22502;SDS011;11418;48.118;9.992;2022-10-16T06:59:41;4.68;;;2.42;;
22502;SDS011;11418;48.118;9.992;2022-10-16T07:03:42;3.00;;;2.00;;
22502;SDS011;11418;48.118;9.992;2022-10-16T07:07:44;3.50;;;2.60;;
22502;SDS011;11418;48.118;9.992;2022-10-16T07:11:44;4.78;;;2.80;;
22502;SDS011;11418;48.118;9.992;2022-10-16T07:15:45;5.72;;;2.40;;
22502;SDS011;11418;48.118;9.992;2022-10-16T07:19:45;4.00;;;2.40;;
22502;SDS011;11418;48.118;9.992;2022-10-16T07:23:50;6.13;;;2.30;;
22502;SDS011;11418;48.118;9.992;2022-10-16T07:27:54;4.78;;;2.00;;
22502;SDS011;11418;48.118;9.992;2022-10-16T07:31:56;6.47;;;1.95;;
22502;SDS011;11418;48.118;9.992;2022-10-16T07:35:57;3.33;;;1.77;;
22502;SDS011;11418;48.118;9.992;2022-10-16T07:39:58;5.10;;;2.40;;
22502;SDS011;11418;48.118;9.992;2022-10-16T07:43:58;2.20;;;2.00;;
22502;SDS011;11418;48.118;9.992;2022-10-16T07:48:00;4.65;;;2.80;;
22502;SDS011;11418;48.118;9.992;2022-10-16T07:52:01;5.47;;;2.42;;
22502;SDS011;11418;48.118;9.992;2022-10-16T07:56:02;5.55;;;2.17;;
22502;SDS011;11418;48.118;9.992;2022-10-16T08:00:05;6.15;;;2.60;;
22502;SDS011;11418;48.118;9.992;2022-10-16T08:04:06;5.32;;;2.00;;
22502;SDS011;11418;48.118;9.992;2022-10-16T08:08:11;4.60;;;2.13;;
22502;SDS011;11418;48.118;9.992;2022-10-16T08:12:15;3.30;;;2.08;;
22502;SDS011;11418;48.118;9.992;2022-10-16T08:16:16;5.97;;;1.85;;
22502;SDS011;11418;48.118;9.992;2022-10-16T08:20:17;5.85;;;1.60;;
22502;SDS011;11418;48.118;9.992;2022-10-16T08:24:17;4.45;;;1.95;;
22502;SDS011;11418;48.118;9.992;2022-10-16T08:28:18;3.38;;;1.52;;
22502;SDS011;11418;48.118;9.992;2022-10-16T08:32:19;4.05;;;2.00;;
22502;SDS011;11418;48.118;9.992;2022-10-16T08:36:20;6.55;;;1.83;;
22502;SDS011;11418;48.118;9.992;2022-10-16T08:40:22;2.35;;;1.30;;
22502;SDS011;11418;48.118;9.992;2022-10-16T08:44:29;3.00;;;1.33;;
22502;SDS011;11418;48.118;9.992;2022-10-16T08:48:46;3.40;;;1.20;;
22502;SDS011;11418;48.118;9.992;2022-10-16T08:52:51;2.47;;;1.40;;
22502;SDS011;11418;48.118;9.992;2022-10-16T08:56:54;3.90;;;2.17;;
22502;SDS011;11418;48.118;9.992;2022-10-16T09:00:57;2.10;;;1.33;;
22502;SDS011;11418;48.118;9.992;2022-10-16T09:05:15;2.55;;;1.40;;
22502;SDS011;11418;48.118;9.992;2022-10-16T09:09:33;1.60;;;1.13;;
22502;SDS011;11418;48.118;9.992;2022-10-16T09:13:58;2.63;;;1.30;;
22502;SDS011;11418;48.118;9.992;2022-10-16T09:18:09;2.03;;;1.25;;
22502;SDS011;11418;48.118;9.992;2022-10-16T09:22:17;3.95;;;1.73;;
22502;SDS011;11418;48.118;9.992;2022-10-16T09:26:27;1.95;;;1.40;;
22502;SDS011;11418;48.118;9.992;2022-10-16T09:30:28;2.58;;;1.50;;
22502;SDS011;11418;48.118;9.992;2022-10-16T09:34:34;3.97;;;1.45;;
22502;SDS011;11418;48.118;9.992;2022-10-16T09:38:38;4.15;;;1.52;;
22502;SDS011;11418;48.118;9.992;2022-10-16T09:42:38;2.25;;;1.13;;
22502;SDS011;11418;48.118;9.992;2022-10-16T09:46:39;2.38;;;1.00;;
22502;SDS011;11418;48.118;9.992;2022-10-16T09:50:40;2.70;;;1.00;;
22502;SDS011;11418;48.118;9.992;2022-10-16T09:58:52;2.60;;;0.90;;
22502;SDS011;11418;48.118;9.992;2022-10-16T10:02:54;1.70;;;0.85;;
22502;SDS011;11418;48.118;9.992;2022-10-16T10:06:55;3.25;;;0.80;;
22502;SDS011;11418;48.118;9.992;2022-10-16T10:10:58;1.27;;;1.00;;
22502;SDS011;11418;48.118;9.992;2022-10-16T10:15:06;1.23;;;0.90;;
22502;SDS011;11418;48.118;9.992;2022-10-16T10:19:18;1.10;;;0.90;;
22502;SDS011;11418;48.118;9.992;2022-10-16T10:23:21;1.33;;;0.80;;
22502;SDS011;11418;48.118;9.992;2022-10-16T10:28:07;1.27;;;0.95;;
22502;SDS011;11418;48.118;9.992;2022-10-16T10:31:49;2.35;;;0.95;;
22502;SDS011;11418;48.118;9.992;2022-10-16T10:48:58;1.30;;;0.90;;
22502;SDS011;11418;48.118;9.992;2022-10-16T10:53:29;1.13;;;0.95;;
22502;SDS011;11418;48.118;9.992;2022-10-16T10:57:40;2.53;;;1.00;;
22502;SDS011;11418;48.118;9.992;2022-10-16T11:02:04;2.28;;;0.80;;
22502;SDS011;11418;48.118;9.992;2022-10-16T11:10:21;2.30;;;0.73;;
22502;SDS011;11418;48.118;9.992;2022-10-16T11:14:50;3.35;;;0.93;;
22502;SDS011;11418;48.118;9.992;2022-10-16T11:19:18;3.22;;;1.10;;
22502;SDS011;11418;48.118;9.992;2022-10-16T11:23:48;2.45;;;0.90;;
22502;SDS011;11418;48.118;9.992;2022-10-16T11:32:42;2.72;;;0.80;;
22502;SDS011;11418;48.118;9.992;2022-10-16T11:45:30;1.70;;;0.87;;
22502;SDS011;11418;48.118;9.992;2022-10-16T11:49:38;1.58;;;0.90;;
22502;SDS011;11418;48.118;9.992;2022-10-16T11:53:59;2.25;;;1.13;;
22502;SDS011;11418;48.118;9.992;2022-10-16T11:58:16;3.40;;;0.90;;
22502;SDS011;11418;48.118;9.992;2022-10-16T12:02:28;1.67;;;0.77;;
22502;SDS011;11418;48.118;9.992;2022-10-16T12:06:31;2.35;;;0.60;;
22502;SDS011;11418;48.118;9.992;2022-10-16T12:10:41;1.63;;;0.60;;
22502;SDS011;11418;48.118;9.992;2022-10-16T12:14:43;0.95;;;0.70;;
22502;SDS011;11418;48.118;9.992;2022-10-16T12:18:45;2.92;;;1.00;;
22502;SDS011;11418;48.118;9.992;2022-10-16T12:22:50;2.60;;;0.70;;
22502;SDS011;11418;48.118;9.992;2022-10-16T12:26:54;3.97;;;0.80;;
22502;SDS011;11418;48.118;9.992;2022-10-16T12:30:55;1.63;;;0.80;;
22502;SDS011;11418;48.118;9.992;2022-10-16T12:35:02;3.13;;;0.70;;
22502;SDS011;11418;48.118;9.992;2022-10-16T12:39:04;3.05;;;0.68;;
22502;SDS011;11418;48.118;9.992;2022-10-16T12:43:12;2.20;;;0.70;;
22502;SDS011;11418;48.118;9.992;2022-10-16T12:51:34;0.88;;;0.70;;
22502;SDS011;11418;48.118;9.992;2022-10-16T12:55:42;1.30;;;0.70;;
22502;SDS011;11418;48.118;9.992;2022-10-16T13:09:05;1.42;;;0.80;;
22502;SDS011;11418;48.118;9.992;2022-10-16T13:14:06;2.55;;;0.85;;
22502;SDS011;11418;48.118;9.992;2022-10-16T13:17:50;1.67;;;0.90;;
22502;SDS011;11418;48.118;9.992;2022-10-16T13:22:05;1.58;;;0.80;;
22502;SDS011;11418;48.118;9.992;2022-10-16T13:26:24;1.67;;;0.98;;
22502;SDS011;11418;48.118;9.992;2022-10-16T13:30:35;0.95;;;0.80;;
22502;SDS011;11418;48.118;9.992;2022-10-16T13:34:45;1.65;;;0.80;;
22502;SDS011;11418;48.118;9.992;2022-10-16T13:38:48;1.02;;;0.73;;
22502;SDS011;11418;48.118;9.992;2022-10-16T13:43:00;2.92;;;0.90;;
22502;SDS011;11418;48.118;9.992;2022-10-16T13:47:01;4.82;;;0.88;;
22502;SDS011;11418;48.118;9.992;2022-10-16T13:55:14;1.83;;;1.00;;
22502;SDS011;11418;48.118;9.992;2022-10-16T13:59:22;1.73;;;0.77;;
22502;SDS011;11418;48.118;9.992;2022-10-16T14:03:25;1.90;;;0.85;;
22502;SDS011;11418;48.118;9.992;2022-10-16T14:07:28;2.17;;;1.05;;
22502;SDS011;11418;48.118;9.992;2022-10-16T14:11:31;1.77;;;1.10;;
22502;SDS011;11418;48.118;9.992;2022-10-16T14:15:34;1.98;;;1.00;;
22502;SDS011;11418;48.118;9.992;2022-10-16T14:19:36;1.15;;;0.90;;
22502;SDS011;11418;48.118;9.992;2022-10-16T14:23:40;0.73;;;0.60;;
22502;SDS011;11418;48.118;9.992;2022-10-16T14:27:42;0.60;;;0.60;;
22502;SDS011;11418;48.118;9.992;2022-10-16T14:31:43;2.13;;;0.70;;
22502;SDS011;11418;48.118;9.992;2022-10-16T14:36:05;1.20;;;0.93;;
22502;SDS011;11418;48.118;9.992;2022-10-16T14:40:14;3.67;;;1.23;;
22502;SDS011;11418;48.118;9.992;2022-10-16T14:44:17;2.28;;;0.82;;
22502;SDS011;11418;48.118;9.992;2022-10-16T14:48:19;3.47;;;0.80;;
22502;SDS011;11418;48.118;9.992;2022-10-16T14:52:20;1.65;;;0.90;;
22502;SDS011;11418;48.118;9.992;2022-10-16T14:56:22;1.15;;;0.82;;
22502;SDS011;11418;48.118;9.992;2022-10-16T15:00:25;3.28;;;1.10;;
22502;SDS011;11418;48.118;9.992;2022-10-16T15:04:25;2.97;;;1.00;;
22502;SDS011;11418;48.118;9.992;2022-10-16T15:08:26;1.40;;;1.30;;
22502;SDS011;11418;48.118;9.992;2022-10-16T15:12:26;3.15;;;1.00;;
22502;SDS011;11418;48.118;9.992;2022-10-16T15:16:27;7.88;;;1.60;;
22502;SDS011;11418;48.118;9.992;2022-10-16T15:20:29;3.03;;;1.40;;
22502;SDS011;11418;48.118;9.992;2022-10-16T15:24:33;6.55;;;1.40;;
22502;SDS011;11418;48.118;9.992;2022-10-16T15:28:34;2.72;;;1.20;;
22502;SDS011;11418;48.118;9.992;2022-10-16T15:32:35;5.05;;;1.38;;
22502;SDS011;11418;48.118;9.992;2022-10-16T15:36:37;3.83;;;1.20;;
22502;SDS011;11418;48.118;9.992;2022-10-16T15:40:38;5.05;;;1.67;;
22502;SDS011;11418;48.118;9.992;2022-10-16T15:44:39;3.88;;;1.00;;
22502;SDS011;11418;48.118;9.992;2022-10-16T15:48:40;7.32;;;1.02;;
22502;SDS011;11418;48.118;9.992;2022-10-16T15:52:40;5.32;;;1.38;;
22502;SDS011;11418;48.118;9.992;2022-10-16T15:56:41;10.57;;;1.50;;
22502;SDS011;11418;48.118;9.992;2022-10-16T16:00:42;4.85;;;1.30;;
22502;SDS011;11418;48.118;9.992;2022-10-16T16:04:42;6.82;;;1.42;;
22502;SDS011;11418;48.118;9.992;2022-10-16T16:08:43;4.70;;;1.10;;
22502;SDS011;11418;48.118;9.992;2022-10-16T16:12:45;3.95;;;1.20;;
22502;SDS011;11418;48.118;9.992;2022-10-16T16:16:51;4.85;;;1.42;;
22502;SDS011;11418;48.118;9.992;2022-10-16T16:20:52;5.93;;;1.35;;
22502;SDS011;11418;48.118;9.992;2022-10-16T16:24:53;3.60;;;1.17;;
22502;SDS011;11418;48.118;9.992;2022-10-16T16:28:54;7.07;;;2.30;;
22502;SDS011;11418;48.118;9.992;2022-10-16T16:32:55;5.93;;;2.40;;
22502;SDS011;11418;48.118;9.992;2022-10-16T16:36:56;3.50;;;2.20;;
22502;SDS011;11418;48.118;9.992;2022-10-16T16:40:57;4.93;;;3.00;;
22502;SDS011;11418;48.118;9.992;2022-10-16T16:44:57;8.98;;;2.50;;
22502;SDS011;11418;48.118;9.992;2022-10-16T16:48:58;14.30;;;8.02;;
22502;SDS011;11418;48.118;9.992;2022-10-16T16:52:59;10.25;;;5.72;;
22502;SDS011;11418;48.118;9.992;2022-10-16T16:56:59;12.25;;;4.55;;
22502;SDS011;11418;48.118;9.992;2022-10-16T17:01:01;6.72;;;2.10;;
22502;SDS011;11418;48.118;9.992;2022-10-16T17:05:02;8.07;;;2.70;;
22502;SDS011;11418;48.118;9.992;2022-10-16T17:09:04;11.57;;;4.28;;
22502;SDS011;11418;48.118;9.992;2022-10-16T17:13:05;6.75;;;2.47;;
22502;SDS011;11418;48.118;9.992;2022-10-16T17:17:06;9.23;;;1.90;;
22502;SDS011;11418;48.118;9.992;2022-10-16T17:21:07;11.50;;;2.90;;
22502;SDS011;11418;48.118;9.992;2022-10-16T17:25:08;7.05;;;2.60;;
22502;SDS011;11418;48.118;9.992;2022-10-16T17:29:10;8.02;;;3.67;;
22502;SDS011;11418;48.118;9.992;2022-10-16T17:33:12;13.77;;;3.75;;
22502;SDS011;11418;48.118;9.992;2022-10-16T17:37:13;13.70;;;7.10;;
22502;SDS011;11418;48.118;9.992;2022-10-16T17:41:15;8.45;;;3.55;;
22502;SDS011;11418;48.118;9.992;2022-10-16T17:45:18;3.80;;;2.00;;
22502;SDS011;11418;48.118;9.992;2022-10-16T17:49:19;10.00;;;1.73;;
22502;SDS011;11418;48.118;9.992;2022-10-16T17:53:20;7.50;;;1.58;;
22502;SDS011;11418;48.118;9.992;2022-10-16T17:57:20;5.35;;;2.00;;
22502;SDS011;11418;48.118;9.992;2022-10-16T18:01:22;10.23;;;3.30;;
22502;SDS011;11418;48.118;9.992;2022-10-16T18:05:36;5.97;;;3.15;;
22502;SDS011;11418;48.118;9.992;2022-10-16T18:09:37;10.55;;;4.32;;
22502;SDS011;11418;48.118;9.992;2022-10-16T18:13:40;15.60;;;6.85;;
22502;SDS011;11418;48.118;9.992;2022-10-16T18:17:41;14.43;;;7.72;;
22502;SDS011;11418;48.118;9.992;2022-10-16T18:21:42;14.07;;;8.70;;
22502;SDS011;11418;48.118;9.992;2022-10-16T18:25:48;16.00;;;8.70;;
22502;SDS011;11418;48.118;9.992;2022-10-16T18:29:49;16.73;;;7.65;;
22502;SDS011;11418;48.118;9.992;2022-10-16T18:33:55;11.40;;;6.07;;
22502;SDS011;11418;48.118;9.992;2022-10-16T18:37:56;10.52;;;5.40;;
22502;SDS011;11418;48.118;9.992;2022-10-16T18:41:59;11.55;;;6.95;;
22502;SDS011;11418;48.118;9.992;2022-10-16T18:46:00;12.63;;;8.15;;
22502;SDS011;11418;48.118;9.992;2022-10-16T18:50:06;11.88;;;6.28;;
22502;SDS011;11418;48.118;9.992;2022-10-16T18:54:08;16.75;;;5.90;;
22502;SDS011;11418;48.118;9.992;2022-10-16T18:58:10;13.65;;;5.50;;
22502;SDS011;11418;48.118;9.992;2022-10-16T19:02:11;11.95;;;6.70;;
22502;SDS011;11418;48.118;9.992;2022-10-16T19:06:12;11.27;;;6.10;;
22502;SDS011;11418;48.118;9.992;2022-10-16T19:10:14;13.02;;;6.25;;
22502;SDS011;11418;48.118;9.992;2022-10-16T19:14:15;9.93;;;4.85;;
22502;SDS011;11418;48.118;9.992;2022-10-16T19:18:16;14.32;;;6.90;;
22502;SDS011;11418;48.118;9.992;2022-10-16T19:22:17;13.73;;;6.32;;
22502;SDS011;11418;48.118;9.992;2022-10-16T19:26:29;7.63;;;5.20;;
22502;SDS011;11418;48.118;9.992;2022-10-16T19:30:34;12.10;;;5.40;;
22502;SDS011;11418;48.118;9.992;2022-10-16T19:34:38;11.70;;;4.35;;
22502;SDS011;11418;48.118;9.992;2022-10-16T19:38:39;8.43;;;3.97;;
22502;SDS011;11418;48.118;9.992;2022-10-16T19:42:40;11.70;;;3.92;;
22502;SDS011;11418;48.118;9.992;2022-10-16T19:46:44;13.65;;;4.45;;
22502;SDS011;11418;48.118;9.992;2022-10-16T19:50:45;6.63;;;3.33;;
22502;SDS011;11418;48.118;9.992;2022-10-16T19:54:46;8.82;;;3.58;;
22502;SDS011;11418;48.118;9.992;2022-10-16T19:58:47;5.47;;;3.85;;
22502;SDS011;11418;48.118;9.992;2022-10-16T20:02:48;14.45;;;7.13;;
22502;SDS011;11418;48.118;9.992;2022-10-16T20:06:49;12.82;;;7.38;;
22502;SDS011;11418;48.118;9.992;2022-10-16T20:10:50;11.80;;;5.20;;
22502;SDS011;11418;48.118;9.992;2022-10-16T20:14:52;11.38;;;4.38;;
22502;SDS011;11418;48.118;9.992;2022-10-16T20:18:52;7.15;;;3.80;;
22502;SDS011;11418;48.118;9.992;2022-10-16T20:22:53;9.52;;;3.78;;
22502;SDS011;11418;48.118;9.992;2022-10-16T20:26:54;7.57;;;4.70;;
22502;SDS011;11418;48.118;9.992;2022-10-16T20:30:54;7.00;;;4.28;;
22502;SDS011;11418;48.118;9.992;2022-10-16T20:34:55;9.00;;;4.07;;
22502;SDS011;11418;48.118;9.992;2022-10-16T20:38:55;7.15;;;3.85;;
22502;SDS011;11418;48.118;9.992;2022-10-16T20:42:56;13.70;;;4.53;;
22502;SDS011;11418;48.118;9.992;2022-10-16T20:46:57;9.95;;;4.93;;
22502;SDS011;11418;48.118;9.992;2022-10-16T20:50:57;6.55;;;4.13;;
22502;SDS011;11418;48.118;9.992;2022-10-16T20:54:59;10.38;;;4.43;;
22502;SDS011;11418;48.118;9.992;2022-10-16T20:58:59;8.60;;;3.92;;
22502;SDS011;11418;48.118;9.992;2022-10-16T21:03:00;6.25;;;3.58;;
22502;SDS011;11418;48.118;9.992;2022-10-16T21:07:00;9.98;;;4.03;;
22502;SDS011;11418;48.118;9.992;2022-10-16T21:11:08;7.28;;;4.22;;
22502;SDS011;11418;48.118;9.992;2022-10-16T21:15:09;15.23;;;4.68;;
22502;SDS011;11418;48.118;9.992;2022-10-16T21:19:11;8.45;;;4.57;;
22502;SDS011;11418;48.118;9.992;2022-10-16T21:23:12;8.85;;;4.70;;
22502;SDS011;11418;48.118;9.992;2022-10-16T21:27:13;9.88;;;4.82;;
22502;SDS011;11418;48.118;9.992;2022-10-16T21:31:14;8.90;;;4.35;;
22502;SDS011;11418;48.118;9.992;2022-10-16T21:35:23;7.80;;;3.73;;
22502;SDS011;11418;48.118;9.992;2022-10-16T21:39:24;6.90;;;4.07;;
22502;SDS011;11418;48.118;9.992;2022-10-16T21:43:25;9.60;;;4.05;;
22502;SDS011;11418;48.118;9.992;2022-10-16T21:47:25;6.20;;;3.83;;
22502;SDS011;11418;48.118;9.992;2022-10-16T21:51:27;9.02;;;3.95;;
22502;SDS011;11418;48.118;9.992;2022-10-16T21:55:28;8.98;;;3.85;;
22502;SDS011;11418;48.118;9.992;2022-10-16T21:59:29;13.20;;;4.32;;
22502;SDS011;11418;48.118;9.992;2022-10-16T22:03:30;6.70;;;4.00;;
22502;SDS011;11418;48.118;9.992;2022-10-16T22:07:30;6.18;;;3.75;;
22502;SDS011;11418;48.118;9.992;2022-10-16T22:11:31;12.13;;;4.40;;
22502;SDS011;11418;48.118;9.992;2022-10-16T22:15:37;7.53;;;4.40;;
22502;SDS011;11418;48.118;9.992;2022-10-16T22:19:37;9.98;;;4.43;;
22502;SDS011;11418;48.118;9.992;2022-10-16T22:23:38;10.40;;;4.40;;
22502;SDS011;11418;48.118;9.992;2022-10-16T22:27:38;15.20;;;5.32;;
22502;SDS011;11418;48.118;9.992;2022-10-16T22:31:39;8.27;;;4.63;;
22502;SDS011;11418;48.118;9.992;2022-10-16T22:35:40;10.43;;;5.03;;
22502;SDS011;11418;48.118;9.992;2022-10-16T22:39:41;7.15;;;4.95;;
22502;SDS011;11418;48.118;9.992;2022-10-16T22:43:45;6.18;;;4.20;;
22502;SDS011;11418;48.118;9.992;2022-10-16T22:47:47;10.43;;;4.32;;
22502;SDS011;11418;48.118;9.992;2022-10-16T22:51:48;11.50;;;5.10;;
22502;SDS011;11418;48.118;9.992;2022-10-16T22:55:49;17.15;;;5.85;;
22502;SDS011;11418;48.118;9.992;2022-10-16T22:59:49;11.32;;;5.18;;
22502;SDS011;11418;48.118;9.992;2022-10-16T23:03:50;10.15;;;5.45;;
22502;SDS011;11418;48.118;9.992;2022-10-16T23:07:50;14.95;;;5.50;;
22502;SDS011;11418;48.118;9.992;2022-10-16T23:11:51;15.60;;;5.93;;
22502;SDS011;11418;48.118;9.992;2022-10-16T23:15:52;7.70;;;4.47;;
22502;SDS011;11418;48.118;9.992;2022-10-16T23:19:52;10.95;;;4.60;;
22502;SDS011;11418;48.118;9.992;2022-10-16T23:23:53;9.88;;;3.95;;
22502;SDS011;11418;48.118;9.992;2022-10-16T23:27:54;8.75;;;4.28;;
22502;SDS011;11418;48.118;9.992;2022-10-16T23:31:54;8.80;;;4.50;;
22502;SDS011;11418;48.118;9.992;2022-10-16T23:35:56;10.95;;;4.28;;
22502;SDS011;11418;48.118;9.992;2022-10-16T23:39:56;5.35;;;3.88;;
22502;SDS011;11418;48.118;9.992;2022-10-16T23:43:57;6.88;;;4.43;;
22502;SDS011;11418;48.118;9.992;2022-10-16T23:47:57;7.07;;;4.18;;
22502;SDS011;11418;48.118;9.992;2022-10-16T23:51:58;14.52;;;4.80;;
22502;SDS011;11418;48.118;9.992;2022-10-16T23:55:59;12.57;;;4.65;;
